No particular awareness of the weather is required.    There are no Weather-warnings


Meteo18 Weather Cam more information Meteo18 Weather Cam


Thunder radar more information blitzortung!


Rain radar more information rain snow radar


Visit our other weather sites:

Template documentation
and downloads

And another site



Weather Underground History page Text

Daily Summary for August 28, 2017 Units:  English    Metric   Both
« Previous Day
Next Day »
Daily Weekly Monthly Yearly Custom
  High: Low: Average:
Temperature: 90.3 °F 70.9 °F 79.9 °F
Dew Point: 67.6 °F 61.3 °F 64.6 °F
Humidity: 79 % 42 % 61 %
Wind Speed: 10 mph 0 mph 3.2 mph
Wind Gust: 14 mph - -
Wind:- - East
Pressure: 30.1 in 30 in -
Precipitation: 0 in    
Historical Graphs
 
 
Tabular Data for August 28, 2017
Time Temperature Dew Point Pressure Wind Wind Speed Wind Gust Humidity Rainfall Rate (Hourly)
00:02 74.7 °F 66.6 °F 30.1 in NE 3 mph 7 mph 76 % 0 in
00:12 74.5 °F 66.4 °F 30.1 in Calm   8 mph 76 % 0 in
00:17 74.5 °F 66.4 °F 30.1 in NE 2 mph 8 mph 76 % 0 in
00:22 74.3 °F 66.2 °F 30.1 in North 1 mph 8 mph 76 % 0 in
00:32 74.1 °F 66 °F 30.1 in NE 1 mph 5 mph 76 % 0 in
00:42 73.9 °F 65.8 °F 30.1 in NE 1 mph 6 mph 76 % 0 in
00:47 73.8 °F 65.7 °F 30.1 in NNE 1 mph 6 mph 76 % 0 in
00:57 73.4 °F 65.7 °F 30.1 in Calm   6 mph 77 % 0 in
01:02 73.4 °F 65.7 °F 30.1 in NE 2 mph 6 mph 77 % 0 in
01:12 73.6 °F 65.5 °F 30.1 in NNE 3 mph 7 mph 76 % 0 in
01:17 73.6 °F 65.5 °F 30.1 in Calm   7 mph 76 % 0 in
01:27 73.2 °F 65.7 °F 30.1 in Calm   5 mph 77 % 0 in
01:32 73.2 °F 65.7 °F 30.1 in Calm   5 mph 77 % 0 in
01:37 73 °F 65.5 °F 30.1 in North 1 mph 5 mph 77 % 0 in
01:47 73 °F 65.5 °F 30.1 in Calm   4 mph 77 % 0 in
01:52 73.2 °F 65.7 °F 30.1 in NNW 2 mph 4 mph 77 % 0 in
02:02 73.2 °F 65.7 °F 30.1 in Calm   4 mph 77 % 0 in
02:12 72.9 °F 65.3 °F 30.1 in Calm   3 mph 77 % 0 in
02:17 72.7 °F 65.5 °F 30.1 in Calm   3 mph 78 % 0 in
02:22 72.5 °F 65.3 °F 30.1 in Calm   2 mph 78 % 0 in
02:32 72.3 °F 65.1 °F 30.1 in Calm   1 mph 78 % 0 in
02:37 72.3 °F 65.1 °F 30.1 in North 3 mph 3 mph 78 % 0 in
02:42 72.3 °F 65.1 °F 30.1 in Calm   2 mph 78 % 0 in
02:47 72.3 °F 65.1 °F 30.1 in North 2 mph 4 mph 78 % 0 in
02:52 72.3 °F 65.1 °F 30.1 in North 4 mph 4 mph 78 % 0 in
02:57 72.3 °F 65.1 °F 30 in North 3 mph 4 mph 78 % 0 in
03:02 72.3 °F 65.1 °F 30.1 in NNE 1 mph 4 mph 78 % 0 in
03:12 72.3 °F 65.1 °F 30 in Calm   5 mph 78 % 0 in
03:17 72.1 °F 64.9 °F 30 in NNW 1 mph 5 mph 78 % 0 in
03:22 72.3 °F 65.1 °F 30 in NNE 2 mph 3 mph 78 % 0 in
03:27 72.3 °F 65.1 °F 30 in North 3 mph 4 mph 78 % 0 in
03:32 72.3 °F 65.1 °F 30 in ENE 2 mph 4 mph 78 % 0 in
03:37 72.3 °F 65.1 °F 30 in North 5 mph 9 mph 78 % 0 in
03:42 72.3 °F 65.1 °F 30 in NNW 3 mph 9 mph 78 % 0 in
03:52 72.3 °F 65.1 °F 30 in NE 3 mph 9 mph 78 % 0 in
03:57 72.3 °F 65.1 °F 30 in ENE 3 mph 6 mph 78 % 0 in
04:02 72.3 °F 65.1 °F 30 in NNW 3 mph 6 mph 78 % 0 in
04:12 72.1 °F 64.9 °F 30 in North 1 mph 6 mph 78 % 0 in
04:17 72.1 °F 64.9 °F 30 in NNW 3 mph 5 mph 78 % 0 in
04:22 72.1 °F 64.9 °F 30 in North 3 mph 6 mph 78 % 0 in
04:32 72 °F 64.8 °F 30 in NNE 1 mph 7 mph 78 % 0 in
04:37 72 °F 64.8 °F 30 in NE 1 mph 5 mph 78 % 0 in
04:42 71.8 °F 64.6 °F 30 in ENE 1 mph 4 mph 78 % 0 in
04:47 71.8 °F 64.9 °F 30 in NNE 2 mph 4 mph 79 % 0 in
05:02 72 °F 64.8 °F 30 in NNW 2 mph 5 mph 78 % 0 in
05:12 71.6 °F 64.4 °F 30 in NE 1 mph 5 mph 78 % 0 in
05:17 71.8 °F 64.6 °F 30 in NNE 3 mph 5 mph 78 % 0 in
05:22 71.8 °F 64.6 °F 30 in NNE 2 mph 7 mph 78 % 0 in
05:27 71.8 °F 64.6 °F 30 in NE 3 mph 7 mph 78 % 0 in
05:32 71.6 °F 64.4 °F 30 in NE 2 mph 7 mph 78 % 0 in
05:42 71.1 °F 64.2 °F 30 in Calm   3 mph 79 % 0 in
05:47 70.9 °F 64 °F 30 in Calm   3 mph 79 % 0 in
05:57 71.1 °F 63.9 °F 30 in NNE 1 mph 3 mph 78 % 0 in
06:02 71.2 °F 64 °F 30 in Calm   4 mph 78 % 0 in
06:12 71.6 °F 64 °F 30 in NNE 1 mph 3 mph 77 % 0 in
06:17 71.8 °F 63.9 °F 30 in NNE 3 mph 3 mph 76 % 0 in
06:27 71.8 °F 63.9 °F 30 in NNE 1 mph 3 mph 76 % 0 in
06:32 71.8 °F 63.9 °F 30 in North 2 mph 3 mph 76 % 0 in
06:42 71.8 °F 64.2 °F 30 in NNW 1 mph 4 mph 77 % 0 in
06:47 71.6 °F 64 °F 30 in Calm   4 mph 77 % 0 in
06:52 71.4 °F 63.9 °F 30 in Calm   4 mph 77 % 0 in
07:02 71.4 °F 63.9 °F 30 in Calm   4 mph 77 % 0 in
07:12 71.4 °F 63.9 °F 30 in Calm   2 mph 77 % 0 in
07:17 71.6 °F 63.7 °F 30 in Calm   2 mph 76 % 0 in
07:22 71.4 °F 63.9 °F 30 in Calm     77 % 0 in
07:32 71.6 °F 64 °F 30 in NNE 2 mph 4 mph 77 % 0 in
07:42 71.4 °F 64.2 °F 30 in North 2 mph 4 mph 78 % 0 in
07:52 71.8 °F 64.2 °F 30 in Calm   5 mph 77 % 0 in
07:57 71.8 °F 64.2 °F 30 in NNE 2 mph 5 mph 77 % 0 in
08:02 72 °F 64.4 °F 30 in Calm   6 mph 77 % 0 in
08:12 72.5 °F 64 °F 30 in Calm   5 mph 75 % 0 in
08:17 72.7 °F 64.2 °F 30 in Calm   5 mph 75 % 0 in
08:27 73.2 °F 64 °F 30 in NNE 1 mph 5 mph 73 % 0 in
08:32 73.2 °F 64 °F 30 in Calm   3 mph 73 % 0 in
08:37 73.6 °F 65.1 °F 30.1 in Calm   3 mph 75 % 0 in
08:42 73.6 °F 65.1 °F 30.1 in ENE 1 mph 2 mph 75 % 0 in
08:47 73.6 °F 64.8 °F 30.1 in ENE 2 mph 2 mph 74 % 0 in
08:57 73.2 °F 64.8 °F 30.1 in North 4 mph 4 mph 75 % 0 in
09:02 73.8 °F 65.3 °F 30.1 in NNE 4 mph 7 mph 75 % 0 in
09:12 74.1 °F 64.9 °F 30.1 in NNE 3 mph 8 mph 73 % 0 in
09:17 74.5 °F 65.3 °F 30.1 in ENE 4 mph 8 mph 73 % 0 in
09:22 74.7 °F 65.5 °F 30.1 in NE 3 mph 8 mph 73 % 0 in
09:27 75.4 °F 65.3 °F 30.1 in North 3 mph 8 mph 71 % 0 in
09:32 75.7 °F 65.7 °F 30.1 in NNW 1 mph 7 mph 71 % 0 in
09:37 76.3 °F 65.3 °F 30.1 in NE 3 mph 7 mph 69 % 0 in
09:42 76.6 °F 65.3 °F 30.1 in NE 1 mph 6 mph 68 % 0 in
09:52 77.2 °F 65.8 °F 30.1 in Calm   6 mph 68 % 0 in
09:57 77.5 °F 65.7 °F 30.1 in NE 3 mph 6 mph 67 % 0 in
10:02 77.4 °F 65.5 °F 30.1 in NNE 2 mph 6 mph 67 % 0 in
10:12 77.5 °F 65.7 °F 30.1 in East 2 mph 4 mph 67 % 0 in
10:17 77.9 °F 66 °F 30.1 in Calm   4 mph 67 % 0 in
10:27 79 °F 66.2 °F 30.1 in Calm   5 mph 65 % 0 in
10:32 79.9 °F 66.6 °F 30.1 in Calm   4 mph 64 % 0 in
10:42 79.7 °F 66 °F 30.1 in East 2 mph 7 mph 63 % 0 in
10:47 80.1 °F 66.4 °F 30.1 in ENE 4 mph 7 mph 63 % 0 in
10:52 80.1 °F 65.8 °F 30.1 in East 3 mph 7 mph 62 % 0 in
10:57 80.4 °F 66.7 °F 30.1 in North 3 mph 7 mph 63 % 0 in
11:02 80.2 °F 66.6 °F 30.1 in North 5 mph 7 mph 63 % 0 in
11:12 81 °F 66.7 °F 30.1 in ENE 2 mph 9 mph 62 % 0 in
11:17 81.1 °F 66.9 °F 30.1 in NE 5 mph 9 mph 62 % 0 in
11:22 81.3 °F 66.6 °F 30.1 in NE 5 mph 8 mph 61 % 0 in
11:27 81.7 °F 67.5 °F 30.1 in ENE 4 mph 8 mph 62 % 0 in
11:32 82.4 °F 67.6 °F 30.1 in NE 1 mph 7 mph 61 % 0 in
11:42 82.9 °F 65.7 °F 30.1 in NE 2 mph 9 mph 56 % 0 in
11:47 83.1 °F 65.8 °F 30.1 in ENE 4 mph 9 mph 56 % 0 in
11:52 83.3 °F 66 °F 30.1 in NNE 4 mph 9 mph 56 % 0 in
11:57 83.8 °F 66 °F 30.1 in NNE 5 mph 9 mph 55 % 0 in
12:02 84.4 °F 66.4 °F 30.1 in ENE 8 mph 10 mph 55 % 0 in
12:12 84.6 °F 66 °F 30.1 in NE 6 mph 10 mph 54 % 0 in
12:17 84.4 °F 65.8 °F 30.1 in NNE 7 mph 10 mph 54 % 0 in
12:22 84.4 °F 66.4 °F 30.1 in East 3 mph 12 mph 55 % 0 in
12:32 84.6 °F 65.5 °F 30.1 in ENE 5 mph 12 mph 53 % 0 in
12:37 84.6 °F 66 °F 30.1 in NE 2 mph 8 mph 54 % 0 in
12:42 85.5 °F 66.4 °F 30.1 in NE 4 mph 8 mph 53 % 0 in
12:47 86 °F 66.9 °F 30.1 in NNW 5 mph 8 mph 53 % 0 in
12:52 86.4 °F 66.7 °F 30.1 in North 6 mph 10 mph 52 % 0 in
13:02 86.5 °F 66.2 °F 30.1 in NNE 8 mph 10 mph 51 % 0 in
13:12 87.3 °F 66.4 °F 30.1 in NNE 7 mph 12 mph 50 % 0 in
13:17 87.3 °F 65.1 °F 30.1 in NNE 6 mph 12 mph 48 % 0 in
13:22 86.9 °F 66 °F 30 in East 2 mph 11 mph 50 % 0 in
13:32 87.1 °F 66.2 °F 30 in ENE 5 mph 10 mph 50 % 0 in
13:42 86.7 °F 65.8 °F 30 in NE 7 mph 9 mph 50 % 0 in
13:52 86.9 °F 66 °F 30 in ENE 5 mph 7 mph 50 % 0 in
13:57 87.1 °F 65.7 °F 30 in ENE 5 mph 7 mph 49 % 0 in
14:02 87.1 °F 65.7 °F 30 in NE 7 mph 8 mph 49 % 0 in
14:12 87.1 °F 64.4 °F 30 in NE 6 mph 8 mph 47 % 0 in
14:17 87.3 °F 65.1 °F 30 in North 4 mph 8 mph 48 % 0 in
14:22 87.3 °F 64.6 °F 30 in NNE 7 mph 8 mph 47 % 0 in
14:27 87.1 °F 64.9 °F 30 in NE 2 mph 8 mph 48 % 0 in
14:32 87.4 °F 64.8 °F 30 in NE 7 mph 9 mph 47 % 0 in
14:37 87.6 °F 64.2 °F 30 in NNE 7 mph 9 mph 46 % 0 in
14:42 88.2 °F 64.8 °F 30 in NE 7 mph 10 mph 46 % 0 in
14:47 88.7 °F 64.6 °F 30 in NNE 9 mph 10 mph 45 % 0 in
14:52 89.1 °F 64.2 °F 30 in NNE 2 mph 10 mph 44 % 0 in
15:02 89.4 °F 63.3 °F 30 in NNE 4 mph 10 mph 42 % 0 in
15:07 89.4 °F 64.6 °F 30 in NNE 5 mph 10 mph 44 % 0 in
15:12 89.8 °F 64.2 °F 30 in East 4 mph 10 mph 43 % 0 in
15:17 89.6 °F 64.2 °F 30 in NNE 7 mph 10 mph 43 % 0 in
15:22 89.6 °F 66 °F 30 in NNE 5 mph 13 mph 46 % 0 in
15:32 89.8 °F 64.9 °F 30 in NNW 5 mph 11 mph 44 % 0 in
15:37 90.1 °F 65.8 °F 30 in NE 10 mph 11 mph 45 % 0 in
15:42 90.3 °F 64 °F 30 in NNE 4 mph 11 mph 42 % 0 in
15:47 89.4 °F 65.3 °F 30 in NE 6 mph 13 mph 45 % 0 in
15:52 89.4 °F 66.6 °F 30 in ENE 5 mph 13 mph 47 % 0 in
16:02 89.4 °F 66.6 °F 30 in NE 5 mph 13 mph 47 % 0 in
16:12 89.4 °F 65.3 °F 30 in NE 9 mph 12 mph 45 % 0 in
16:17 89.2 °F 65.7 °F 30 in North 8 mph 14 mph 46 % 0 in
16:27 89.8 °F 64.9 °F 30 in NNE 2 mph 12 mph 44 % 0 in
16:32 89.6 °F 66 °F 30 in ENE 9 mph 12 mph 46 % 0 in
16:37 89.8 °F 65.7 °F 30 in WNW 5 mph 13 mph 45 % 0 in
16:47 89.1 °F 65.7 °F 30 in NNE 4 mph 13 mph 46 % 0 in
16:52 89.1 °F 65.7 °F 30 in NNW 4 mph 13 mph 46 % 0 in
16:57 89.2 °F 65.7 °F 30 in ENE 7 mph 11 mph 46 % 0 in
17:02 89.2 °F 65.7 °F 30 in NE 8 mph 11 mph 46 % 0 in
17:17 90 °F 65.8 °F 30 in NNE 6 mph 14 mph 45 % 0 in
17:22 90.1 °F 65.8 °F 30 in NE 8 mph 14 mph 45 % 0 in
17:27 90 °F 65.1 °F 30 in NW 1 mph 14 mph 44 % 0 in
17:32 89.8 °F 65.7 °F 30 in NE 6 mph 14 mph 45 % 0 in
17:37 90 °F 65.1 °F 30 in North 5 mph 13 mph 44 % 0 in
17:42 90.1 °F 65.3 °F 30 in NNW 4 mph 13 mph 44 % 0 in
17:47 90 °F 65.1 °F 30 in NE 8 mph 13 mph 44 % 0 in
17:52 90 °F 65.1 °F 30 in North 6 mph 12 mph 44 % 0 in
17:57 90 °F 65.1 °F 30 in NNW 5 mph 12 mph 44 % 0 in
18:02 89.4 °F 64.6 °F 30 in NNE 6 mph 12 mph 44 % 0 in
18:12 89.4 °F 64.6 °F 30 in NE 7 mph 11 mph 44 % 0 in
18:17 89.2 °F 65.1 °F 30 in ENE 4 mph 12 mph 45 % 0 in
18:22 89.2 °F 65.1 °F 30 in ENE 4 mph 12 mph 45 % 0 in
18:27 89.2 °F 64.4 °F 30 in NE 6 mph 11 mph 44 % 0 in
18:32 89.1 °F 64.2 °F 30 in NNW 5 mph 11 mph 44 % 0 in
18:42 88.9 °F 63.5 °F 30 in NNE 6 mph 11 mph 43 % 0 in
18:52 88.7 °F 62.6 °F 30 in NNE 7 mph 11 mph 42 % 0 in
18:57 88.3 °F 63 °F 30 in North 6 mph 11 mph 43 % 0 in
19:02 88 °F 62.6 °F 30 in NE 3 mph 9 mph 43 % 0 in
19:12 87.6 °F 63 °F 30 in NE 3 mph 12 mph 44 % 0 in
19:17 87.4 °F 62.8 °F 30 in NNW 2 mph 12 mph 44 % 0 in
19:22 87.3 °F 62.6 °F 30 in NNE 2 mph 10 mph 44 % 0 in
19:32 86.9 °F 63.7 °F 30 in NE 6 mph 10 mph 46 % 0 in
19:37 86.5 °F 63.3 °F 30 in NE 2 mph 10 mph 46 % 0 in
19:42 86.4 °F 63.7 °F 30 in NNE 5 mph 10 mph 47 % 0 in
19:47 86 °F 64 °F 30 in NNE 5 mph 10 mph 48 % 0 in
19:52 85.6 °F 63.7 °F 30 in NE 4 mph 10 mph 48 % 0 in
19:57 85.3 °F 64 °F 30 in NNE 2 mph 10 mph 49 % 0 in
20:02 84.7 °F 63.5 °F 30 in North 8 mph 10 mph 49 % 0 in
20:12 84 °F 62.8 °F 30 in NE 1 mph 11 mph 49 % 0 in
20:17 83.7 °F 63 °F 30 in ENE 1 mph 11 mph 50 % 0 in
20:22 83.5 °F 63 °F 30 in NNE 5 mph 11 mph 50 % 0 in
20:32 82.8 °F 62.8 °F 30 in NNE 4 mph 12 mph 51 % 0 in
20:37 82.6 °F 62.6 °F 30 in NNE 3 mph 12 mph 51 % 0 in
20:42 82.2 °F 62.2 °F 30 in NE 4 mph 9 mph 51 % 0 in
20:47 82 °F 62.1 °F 30 in ENE 6 mph 9 mph 51 % 0 in
20:52 81.9 °F 61.9 °F 30 in NNE 3 mph 10 mph 51 % 0 in
21:12 81 °F 61.7 °F 30 in NE 4 mph 9 mph 52 % 0 in
21:17 80.8 °F 61.5 °F 30 in NNE 6 mph 10 mph 52 % 0 in
21:22 80.8 °F 62.1 °F 30 in NNE 6 mph 10 mph 53 % 0 in
21:27 80.6 °F 61.9 °F 30 in ENE 3 mph 10 mph 53 % 0 in
21:32 80.4 °F 62.2 °F 30 in ENE 2 mph 11 mph 54 % 0 in
21:37 80.4 °F 62.2 °F 30 in NNE 7 mph 11 mph 54 % 0 in
21:42 80.2 °F 62.1 °F 30 in NNE 6 mph 11 mph 54 % 0 in
21:47 80.1 °F 62.4 °F 30 in NE 3 mph 11 mph 55 % 0 in
21:57 79.7 °F 62.1 °F 30 in NE 4 mph 11 mph 55 % 0 in
22:02 79.3 °F 62.2 °F 30 in ENE 2 mph 11 mph 56 % 0 in
22:12 79 °F 62.4 °F 30 in NNE 3 mph 11 mph 57 % 0 in
22:17 78.6 °F 62.1 °F 30 in NNE 6 mph 10 mph 57 % 0 in
22:22 78.6 °F 62.1 °F 30 in NNW 4 mph 10 mph 57 % 0 in
22:32 78.4 °F 61.9 °F 30 in NNE 5 mph 10 mph 57 % 0 in
22:37 78.4 °F 62.4 °F 30 in NNE 6 mph 9 mph 58 % 0 in
22:47 78.1 °F 62.1 °F 30 in NNE 4 mph 9 mph 58 % 0 in
22:52 77.7 °F 62.2 °F 30 in NE 3 mph 9 mph 59 % 0 in
22:57 77.7 °F 62.2 °F 30 in ENE 3 mph 8 mph 59 % 0 in
23:02 77.5 °F 62.1 °F 30 in NNE 4 mph 7 mph 59 % 0 in
23:12 77.2 °F 61.7 °F 30 in North 2 mph 7 mph 59 % 0 in
23:17 77 °F 62.1 °F 30 in North 1 mph 7 mph 60 % 0 in
23:22 76.6 °F 61.7 °F 30 in NE 4 mph 6 mph 60 % 0 in
23:27 76.6 °F 61.7 °F 30 in NE 4 mph 6 mph 60 % 0 in
23:32 76.6 °F 61.7 °F 30 in NE 2 mph 5 mph 60 % 0 in
23:37 76.5 °F 61.5 °F 30 in North 1 mph 6 mph 60 % 0 in
23:42 76.3 °F 61.3 °F 30 in NE 3 mph 6 mph 60 % 0 in
23:47 76.3 °F 61.9 °F 30 in NE 2 mph 8 mph 61 % 0 in
23:52 76.3 °F 61.9 °F 30 in NE 2 mph 8 mph 61 % 0 in
23:57 76.3 °F 61.9 °F 30 in NE 2 mph 8 mph 61 % 0 in
Meteo18
Compliments of Weather Underground - 4 mb

Script developed by  Jim McMurry - jmcmurry@mwt.net Adapted for the template by  Wim van der Kuil - Leuven-Template.eu

You find our weather info also at:

European Weather Network

Weather Underground

Equipment we use:

Weather-station
Davis Vue

Weather-program
Meteohub

Weather-server
Raspberry PI 2 B+

Provider
1 and 1

Davis Vue

Meteohub

Raspberry PI 2 B+

1 and 1